sensor_id;sensor_type;location;lat;lon;timestamp;pressure;altitude;pressure_sealevel;temperature;humidity
79692;BME280;69158;55.592;37.610;2023-04-15T00:02:23;100397.28;;;1.29;25.13
79692;BME280;69158;55.592;37.610;2023-04-15T00:05:10;100405.53;;;1.22;25.00
79692;BME280;69158;55.592;37.610;2023-04-15T00:07:56;100413.19;;;1.23;25.08
79692;BME280;69158;55.592;37.610;2023-04-15T00:10:52;100411.97;;;1.16;25.12
79692;BME280;69158;55.592;37.610;2023-04-15T00:13:38;100393.50;;;0.96;25.39
79692;BME280;69158;55.592;37.610;2023-04-15T00:16:24;100422.31;;;1.16;25.19
79692;BME280;69158;55.592;37.610;2023-04-15T00:19:12;100432.00;;;1.13;25.36
79692;BME280;69158;55.592;37.610;2023-04-15T00:25:07;100434.78;;;0.97;25.32
79692;BME280;69158;55.592;37.610;2023-04-15T00:27:55;100430.00;;;0.91;25.61
79692;BME280;69158;55.592;37.610;2023-04-15T00:30:44;100438.56;;;0.91;25.47
79692;BME280;69158;55.592;37.610;2023-04-15T00:33:33;100446.31;;;0.91;25.19
79692;BME280;69158;55.592;37.610;2023-04-15T00:36:21;100434.00;;;0.82;25.87
79692;BME280;69158;55.592;37.610;2023-04-15T00:39:08;100446.44;;;0.90;25.68
79692;BME280;69158;55.592;37.610;2023-04-15T00:41:56;100449.03;;;0.90;25.78
79692;BME280;69158;55.592;37.610;2023-04-15T00:44:43;100451.91;;;0.85;25.42
79692;BME280;69158;55.592;37.610;2023-04-15T00:47:31;100444.84;;;0.75;25.70
79692;BME280;69158;55.592;37.610;2023-04-15T00:50:18;100419.97;;;0.47;25.70
79692;BME280;69158;55.592;37.610;2023-04-15T00:53:05;100467.78;;;0.79;25.89
79692;BME280;69158;55.592;37.610;2023-04-15T00:55:52;100461.53;;;0.69;25.66
79692;BME280;69158;55.592;37.610;2023-04-15T00:58:41;100472.13;;;0.79;25.84
79692;BME280;69158;55.592;37.610;2023-04-15T01:01:29;100474.16;;;0.74;25.62
79692;BME280;69158;55.592;37.610;2023-04-15T01:04:16;100472.00;;;0.68;26.03
79692;BME280;69158;55.592;37.610;2023-04-15T01:07:03;100474.94;;;0.62;25.78
79692;BME280;69158;55.592;37.610;2023-04-15T01:09:53;100491.19;;;0.64;25.94
79692;BME280;69158;55.592;37.610;2023-04-15T01:12:39;100482.69;;;0.62;25.85
79692;BME280;69158;55.592;37.610;2023-04-15T01:15:28;100487.16;;;0.60;26.17
79692;BME280;69158;55.592;37.610;2023-04-15T01:18:14;100487.50;;;0.54;25.88
79692;BME280;69158;55.592;37.610;2023-04-15T01:21:04;100484.22;;;0.52;26.49
79692;BME280;69158;55.592;37.610;2023-04-15T01:23:54;100502.38;;;0.50;25.70
79692;BME280;69158;55.592;37.610;2023-04-15T01:26:45;100492.47;;;0.57;26.64
79692;BME280;69158;55.592;37.610;2023-04-15T01:29:37;100492.63;;;0.41;26.13
79692;BME280;69158;55.592;37.610;2023-04-15T01:32:23;100470.34;;;0.26;26.58
79692;BME280;69158;55.592;37.610;2023-04-15T01:35:09;100479.00;;;0.25;26.57
79692;BME280;69158;55.592;37.610;2023-04-15T01:38:01;100482.84;;;0.32;26.12
79692;BME280;69158;55.592;37.610;2023-04-15T01:40:48;100512.91;;;0.33;26.06
79692;BME280;69158;55.592;37.610;2023-04-15T01:43:35;100511.44;;;0.29;26.55
79692;BME280;69158;55.592;37.610;2023-04-15T01:46:26;100513.19;;;0.28;27.19
79692;BME280;69158;55.592;37.610;2023-04-15T01:49:12;100504.97;;;0.36;26.39
79692;BME280;69158;55.592;37.610;2023-04-15T01:51:59;100523.16;;;0.34;26.99
79692;BME280;69158;55.592;37.610;2023-04-15T01:54:47;100501.22;;;0.13;26.64
79692;BME280;69158;55.592;37.610;2023-04-15T01:57:33;100526.31;;;0.25;26.80
79692;BME280;69158;55.592;37.610;2023-04-15T02:00:19;100486.19;;;-0.09;26.69
79692;BME280;69158;55.592;37.610;2023-04-15T02:03:08;100537.34;;;0.27;26.69
79692;BME280;69158;55.592;37.610;2023-04-15T02:05:56;100524.28;;;0.16;26.98
79692;BME280;69158;55.592;37.610;2023-04-15T02:08:44;100553.50;;;0.17;26.77
79692;BME280;69158;55.592;37.610;2023-04-15T02:11:30;100543.16;;;0.17;27.12
79692;BME280;69158;55.592;37.610;2023-04-15T02:14:19;100541.69;;;0.13;27.18
79692;BME280;69158;55.592;37.610;2023-04-15T02:17:05;100541.22;;;0.06;27.00
79692;BME280;69158;55.592;37.610;2023-04-15T02:19:54;100545.53;;;0.06;27.47
79692;BME280;69158;55.592;37.610;2023-04-15T02:22:42;100548.88;;;0.08;26.94
79692;BME280;69158;55.592;37.610;2023-04-15T02:25:29;100555.31;;;0.00;27.42
79692;BME280;69158;55.592;37.610;2023-04-15T02:28:15;100559.09;;;-0.05;27.42
79692;BME280;69158;55.592;37.610;2023-04-15T02:31:05;100561.31;;;0.01;27.33
79692;BME280;69158;55.592;37.610;2023-04-15T02:33:51;100565.09;;;-0.05;27.76
79692;BME280;69158;55.592;37.610;2023-04-15T02:36:39;100558.91;;;-0.02;27.04
79692;BME280;69158;55.592;37.610;2023-04-15T02:39:27;100557.78;;;-0.12;27.07
79692;BME280;69158;55.592;37.610;2023-04-15T02:42:13;100581.28;;;-0.03;27.80
79692;BME280;69158;55.592;37.610;2023-04-15T02:44:59;100576.06;;;-0.01;27.15
79692;BME280;69158;55.592;37.610;2023-04-15T02:47:45;100575.50;;;-0.06;27.14
79692;BME280;69158;55.592;37.610;2023-04-15T02:50:32;100583.03;;;-0.03;27.33
79692;BME280;69158;55.592;37.610;2023-04-15T02:53:18;100594.19;;;-0.03;27.48
79692;BME280;69158;55.592;37.610;2023-04-15T02:56:04;100579.56;;;-0.02;27.15
79692;BME280;69158;55.592;37.610;2023-04-15T02:58:51;100599.16;;;0.00;27.25
79692;BME280;69158;55.592;37.610;2023-04-15T03:01:40;100592.53;;;-0.04;27.16
79692;BME280;69158;55.592;37.610;2023-04-15T03:04:26;100589.22;;;-0.06;27.35
79692;BME280;69158;55.592;37.610;2023-04-15T03:07:16;100596.16;;;0.08;27.69
79692;BME280;69158;55.592;37.610;2023-04-15T03:10:02;100581.84;;;0.03;27.28
79692;BME280;69158;55.592;37.610;2023-04-15T03:12:48;100613.38;;;0.08;27.00
79692;BME280;69158;55.592;37.610;2023-04-15T03:15:37;100598.75;;;0.08;27.05
79692;BME280;69158;55.592;37.610;2023-04-15T03:18:23;100588.41;;;0.08;27.26
79692;BME280;69158;55.592;37.610;2023-04-15T03:21:10;100605.38;;;0.26;27.75
79692;BME280;69158;55.592;37.610;2023-04-15T03:23:56;100611.09;;;0.17;27.15
79692;BME280;69158;55.592;37.610;2023-04-15T03:26:42;100607.88;;;0.28;26.87
79692;BME280;69158;55.592;37.610;2023-04-15T03:29:28;100593.75;;;0.19;27.42
79692;BME280;69158;55.592;37.610;2023-04-15T03:32:14;100622.06;;;0.35;27.25
79692;BME280;69158;55.592;37.610;2023-04-15T03:35:00;100624.28;;;0.41;27.18
79692;BME280;69158;55.592;37.610;2023-04-15T03:37:46;100622.34;;;0.44;27.61
79692;BME280;69158;55.592;37.610;2023-04-15T03:40:33;100630.38;;;0.54;26.84
79692;BME280;69158;55.592;37.610;2023-04-15T03:43:19;100619.94;;;0.41;27.18
79692;BME280;69158;55.592;37.610;2023-04-15T03:46:05;100632.88;;;0.56;27.36
79692;BME280;69158;55.592;37.610;2023-04-15T03:48:51;100628.63;;;0.55;27.15
79692;BME280;69158;55.592;37.610;2023-04-15T03:51:39;100627.16;;;0.65;27.30
79692;BME280;69158;55.592;37.610;2023-04-15T03:54:25;100643.66;;;0.76;26.49
79692;BME280;69158;55.592;37.610;2023-04-15T03:57:12;100651.19;;;0.79;27.00
79692;BME280;69158;55.592;37.610;2023-04-15T03:59:59;100629.34;;;0.85;26.45
79692;BME280;69158;55.592;37.610;2023-04-15T04:02:46;100649.88;;;1.01;26.69
79692;BME280;69158;55.592;37.610;2023-04-15T04:05:33;100611.03;;;0.88;26.43
79692;BME280;69158;55.592;37.610;2023-04-15T04:08:21;100655.38;;;1.23;26.40
79692;BME280;69158;55.592;37.610;2023-04-15T04:11:07;100641.94;;;1.30;25.74
79692;BME280;69158;55.592;37.610;2023-04-15T04:13:53;100650.59;;;1.44;25.80
79692;BME280;69158;55.592;37.610;2023-04-15T04:16:39;100641.97;;;1.57;25.72
79692;BME280;69158;55.592;37.610;2023-04-15T04:19:26;100653.69;;;1.63;25.58
79692;BME280;69158;55.592;37.610;2023-04-15T04:22:12;100645.00;;;1.64;25.77
79692;BME280;69158;55.592;37.610;2023-04-15T04:24:58;100660.03;;;1.84;25.10
79692;BME280;69158;55.592;37.610;2023-04-15T04:27:45;100650.94;;;1.91;25.56
79692;BME280;69158;55.592;37.610;2023-04-15T04:30:31;100665.44;;;1.94;25.16
79692;BME280;69158;55.592;37.610;2023-04-15T04:33:20;100663.72;;;2.07;25.14
79692;BME280;69158;55.592;37.610;2023-04-15T04:36:06;100666.72;;;2.13;24.96
79692;BME280;69158;55.592;37.610;2023-04-15T04:38:52;100649.22;;;2.17;24.86
79692;BME280;69158;55.592;37.610;2023-04-15T04:41:41;100667.47;;;2.28;24.55
79692;BME280;69158;55.592;37.610;2023-04-15T04:44:27;100639.16;;;2.12;24.79
79692;BME280;69158;55.592;37.610;2023-04-15T04:47:14;100676.97;;;2.15;24.60
79692;BME280;69158;55.592;37.610;2023-04-15T04:50:00;100673.97;;;2.34;24.91
79692;BME280;69158;55.592;37.610;2023-04-15T04:52:46;100660.09;;;2.35;24.76
79692;BME280;69158;55.592;37.610;2023-04-15T04:55:35;100663.13;;;2.41;24.74
79692;BME280;69158;55.592;37.610;2023-04-15T04:58:21;100661.47;;;2.40;24.28
79692;BME280;69158;55.592;37.610;2023-04-15T05:01:07;100657.50;;;2.35;24.14
79692;BME280;69158;55.592;37.610;2023-04-15T05:03:53;100652.53;;;2.57;24.09
79692;BME280;69158;55.592;37.610;2023-04-15T05:06:39;100659.56;;;2.55;24.05
79692;BME280;69158;55.592;37.610;2023-04-15T05:09:26;100670.28;;;2.63;23.90
79692;BME280;69158;55.592;37.610;2023-04-15T05:12:12;100671.69;;;2.80;23.85
79692;BME280;69158;55.592;37.610;2023-04-15T05:14:59;100672.34;;;2.70;23.54
79692;BME280;69158;55.592;37.610;2023-04-15T05:17:45;100680.94;;;2.58;24.31
79692;BME280;69158;55.592;37.610;2023-04-15T05:20:31;100666.13;;;2.48;24.03
79692;BME280;69158;55.592;37.610;2023-04-15T05:23:18;100682.19;;;2.65;23.87
79692;BME280;69158;55.592;37.610;2023-04-15T05:26:04;100671.78;;;2.78;24.07
79692;BME280;69158;55.592;37.610;2023-04-15T05:28:49;100675.28;;;2.90;23.36
79692;BME280;69158;55.592;37.610;2023-04-15T05:31:35;100673.78;;;3.11;23.58
79692;BME280;69158;55.592;37.610;2023-04-15T05:34:21;100675.94;;;3.30;23.42
79692;BME280;69158;55.592;37.610;2023-04-15T05:37:07;100684.72;;;3.40;22.85
79692;BME280;69158;55.592;37.610;2023-04-15T05:39:53;100684.72;;;3.40;23.41
79692;BME280;69158;55.592;37.610;2023-04-15T05:42:39;100682.19;;;3.51;22.65
79692;BME280;69158;55.592;37.610;2023-04-15T05:45:26;100654.84;;;3.34;22.58
79692;BME280;69158;55.592;37.610;2023-04-15T05:48:12;100691.34;;;3.67;22.57
79692;BME280;69158;55.592;37.610;2023-04-15T05:50:57;100682.41;;;3.72;22.26
79692;BME280;69158;55.592;37.610;2023-04-15T05:53:43;100701.25;;;4.21;22.46
79692;BME280;69158;55.592;37.610;2023-04-15T05:56:30;100689.72;;;4.47;22.13
79692;BME280;69158;55.592;37.610;2023-04-15T05:59:16;100696.59;;;4.71;21.62
79692;BME280;69158;55.592;37.610;2023-04-15T06:02:02;100667.06;;;4.83;21.38
79692;BME280;69158;55.592;37.610;2023-04-15T06:04:48;100696.34;;;5.72;21.34
79692;BME280;69158;55.592;37.610;2023-04-15T06:07:36;100685.41;;;6.42;20.20
79692;BME280;69158;55.592;37.610;2023-04-15T06:10:23;100688.06;;;7.22;19.02
79692;BME280;69158;55.592;37.610;2023-04-15T06:13:09;100688.44;;;7.77;18.59
79692;BME280;69158;55.592;37.610;2023-04-15T06:15:55;100690.47;;;8.50;17.66
79692;BME280;69158;55.592;37.610;2023-04-15T06:18:41;100670.66;;;9.11;17.31
79692;BME280;69158;55.592;37.610;2023-04-15T06:21:28;100674.59;;;9.25;16.22
79692;BME280;69158;55.592;37.610;2023-04-15T06:24:14;100680.09;;;9.49;16.19
79692;BME280;69158;55.592;37.610;2023-04-15T06:27:00;100682.06;;;9.83;16.10
79692;BME280;69158;55.592;37.610;2023-04-15T06:29:46;100672.81;;;10.14;15.85
79692;BME280;69158;55.592;37.610;2023-04-15T06:32:32;100683.78;;;10.53;15.04
79692;BME280;69158;55.592;37.610;2023-04-15T06:35:18;100680.59;;;11.01;15.26
79692;BME280;69158;55.592;37.610;2023-04-15T06:38:05;100678.06;;;11.25;14.86
79692;BME280;69158;55.592;37.610;2023-04-15T06:40:51;100687.28;;;11.29;14.21
79692;BME280;69158;55.592;37.610;2023-04-15T06:43:38;100691.72;;;12.03;14.22
79692;BME280;69158;55.592;37.610;2023-04-15T06:46:24;100677.06;;;11.76;14.30
79692;BME280;69158;55.592;37.610;2023-04-15T06:49:10;100686.50;;;11.53;14.20
79692;BME280;69158;55.592;37.610;2023-04-15T06:51:58;100701.09;;;11.48;14.65
79692;BME280;69158;55.592;37.610;2023-04-15T06:54:45;100696.31;;;11.77;13.88
79692;BME280;69158;55.592;37.610;2023-04-15T06:57:31;100694.97;;;12.54;13.86
79692;BME280;69158;55.592;37.610;2023-04-15T07:00:17;100691.34;;;12.55;13.09
79692;BME280;69158;55.592;37.610;2023-04-15T07:03:04;100693.84;;;13.11;12.88
79692;BME280;69158;55.592;37.610;2023-04-15T07:05:50;100690.94;;;13.29;13.01
79692;BME280;69158;55.592;37.610;2023-04-15T07:08:35;100682.53;;;13.87;12.05
79692;BME280;69158;55.592;37.610;2023-04-15T07:11:21;100681.72;;;14.24;12.15
79692;BME280;69158;55.592;37.610;2023-04-15T07:14:07;100691.69;;;14.37;11.42
79692;BME280;69158;55.592;37.610;2023-04-15T07:16:53;100677.25;;;13.64;12.02
79692;BME280;69158;55.592;37.610;2023-04-15T07:19:39;100675.53;;;13.49;12.00
79692;BME280;69158;55.592;37.610;2023-04-15T07:22:25;100686.97;;;13.87;11.59
79692;BME280;69158;55.592;37.610;2023-04-15T07:25:11;100660.19;;;13.75;11.76
79692;BME280;69158;55.592;37.610;2023-04-15T07:27:57;100693.03;;;14.85;10.84
79692;BME280;69158;55.592;37.610;2023-04-15T07:30:43;100687.84;;;14.91;11.07
79692;BME280;69158;55.592;37.610;2023-04-15T07:33:29;100655.47;;;15.04;10.80
79692;BME280;69158;55.592;37.610;2023-04-15T07:36:16;100681.69;;;15.35;10.29
79692;BME280;69158;55.592;37.610;2023-04-15T07:39:02;100595.97;;;15.29;10.34
79692;BME280;69158;55.592;37.610;2023-04-15T07:41:49;100638.31;;;15.93;9.93
79692;BME280;69158;55.592;37.610;2023-04-15T07:44:35;100685.00;;;16.71;9.44
79692;BME280;69158;55.592;37.610;2023-04-15T07:47:20;100654.28;;;16.55;9.18
79692;BME280;69158;55.592;37.610;2023-04-15T07:50:11;100648.19;;;16.06;9.61
79692;BME280;69158;55.592;37.610;2023-04-15T07:52:57;100682.53;;;16.42;9.48
79692;BME280;69158;55.592;37.610;2023-04-15T07:55:43;100682.38;;;16.50;9.93
79692;BME280;69158;55.592;37.610;2023-04-15T07:58:31;100658.06;;;17.08;9.39
79692;BME280;69158;55.592;37.610;2023-04-15T08:01:17;100679.81;;;17.45;9.21
79692;BME280;69158;55.592;37.610;2023-04-15T08:04:04;100656.72;;;17.32;8.88
79692;BME280;69158;55.592;37.610;2023-04-15T08:06:51;100650.63;;;16.56;9.07
79692;BME280;69158;55.592;37.610;2023-04-15T08:09:37;100679.28;;;17.08;8.77
79692;BME280;69158;55.592;37.610;2023-04-15T08:12:23;100668.88;;;16.17;9.08
79692;BME280;69158;55.592;37.610;2023-04-15T08:15:09;100691.22;;;16.08;9.63
79692;BME280;69158;55.592;37.610;2023-04-15T08:17:55;100677.28;;;15.78;9.61
79692;BME280;69158;55.592;37.610;2023-04-15T08:20:44;100671.56;;;15.96;9.18
79692;BME280;69158;55.592;37.610;2023-04-15T08:23:30;100653.78;;;15.89;9.61
79692;BME280;69158;55.592;37.610;2023-04-15T08:26:18;100665.31;;;15.82;9.50
79692;BME280;69158;55.592;37.610;2023-04-15T08:29:05;100673.41;;;16.23;9.45
79692;BME280;69158;55.592;37.610;2023-04-15T08:31:50;100675.69;;;16.26;9.52
79692;BME280;69158;55.592;37.610;2023-04-15T08:34:38;100669.75;;;16.24;9.58
79692;BME280;69158;55.592;37.610;2023-04-15T08:37:24;100663.13;;;15.50;10.34
79692;BME280;69158;55.592;37.610;2023-04-15T08:40:11;100669.13;;;15.58;9.62
79692;BME280;69158;55.592;37.610;2023-04-15T08:42:58;100666.97;;;15.47;10.08
79692;BME280;69158;55.592;37.610;2023-04-15T08:45:46;100669.69;;;15.18;9.72
79692;BME280;69158;55.592;37.610;2023-04-15T08:48:37;100667.53;;;15.42;10.07
79692;BME280;69158;55.592;37.610;2023-04-15T08:51:25;100619.31;;;14.75;10.00
79692;BME280;69158;55.592;37.610;2023-04-15T08:54:12;100664.63;;;14.58;9.91
79692;BME280;69158;55.592;37.610;2023-04-15T08:56:58;100666.59;;;14.56;10.24
79692;BME280;69158;55.592;37.610;2023-04-15T08:59:44;100651.31;;;14.14;10.31
79692;BME280;69158;55.592;37.610;2023-04-15T09:02:31;100660.59;;;14.24;10.13
79692;BME280;69158;55.592;37.610;2023-04-15T09:05:17;100655.59;;;13.46;10.85
79692;BME280;69158;55.592;37.610;2023-04-15T09:08:04;100652.81;;;13.93;11.03
79692;BME280;69158;55.592;37.610;2023-04-15T09:10:50;100656.22;;;14.17;10.40
79692;BME280;69158;55.592;37.610;2023-04-15T09:13:36;100670.91;;;14.34;10.33
79692;BME280;69158;55.592;37.610;2023-04-15T09:16:22;100629.84;;;14.31;10.45
79692;BME280;69158;55.592;37.610;2023-04-15T09:19:22;100650.94;;;14.39;10.83
79692;BME280;69158;55.592;37.610;2023-04-15T09:22:08;100660.13;;;13.60;10.90
79692;BME280;69158;55.592;37.610;2023-04-15T09:24:54;100660.69;;;13.48;11.93
79692;BME280;69158;55.592;37.610;2023-04-15T09:28:00;100655.19;;;13.57;11.25
79692;BME280;69158;55.592;37.610;2023-04-15T09:30:50;100634.31;;;13.48;11.46
79692;BME280;69158;55.592;37.610;2023-04-15T09:33:54;100660.94;;;14.44;11.07
79692;BME280;69158;55.592;37.610;2023-04-15T09:39:47;100655.59;;;14.81;12.98
79692;BME280;69158;55.592;37.610;2023-04-15T09:42:35;100664.50;;;14.80;12.31
79692;BME280;69158;55.592;37.610;2023-04-15T09:45:23;100661.72;;;13.92;12.09
79692;BME280;69158;55.592;37.610;2023-04-15T09:48:18;100663.22;;;14.47;10.61
79692;BME280;69158;55.592;37.610;2023-04-15T09:51:05;100643.47;;;14.87;10.36
79692;BME280;69158;55.592;37.610;2023-04-15T09:53:53;100642.63;;;15.73;10.30
79692;BME280;69158;55.592;37.610;2023-04-15T09:56:41;100652.56;;;16.41;9.32
79692;BME280;69158;55.592;37.610;2023-04-15T09:59:28;100632.16;;;16.35;9.63
79692;BME280;69158;55.592;37.610;2023-04-15T10:02:15;100641.00;;;16.83;8.74
79692;BME280;69158;55.592;37.610;2023-04-15T10:05:03;100664.56;;;16.99;9.04
79692;BME280;69158;55.592;37.610;2023-04-15T10:07:51;100636.41;;;17.05;8.84
79692;BME280;69158;55.592;37.610;2023-04-15T10:10:44;100640.13;;;16.69;8.73
79692;BME280;69158;55.592;37.610;2023-04-15T10:13:31;100614.38;;;17.04;8.65
79692;BME280;69158;55.592;37.610;2023-04-15T10:16:19;100658.13;;;17.35;8.71
79692;BME280;69158;55.592;37.610;2023-04-15T10:19:07;100653.53;;;16.61;9.55
79692;BME280;69158;55.592;37.610;2023-04-15T10:21:54;100614.41;;;17.17;8.72
79692;BME280;69158;55.592;37.610;2023-04-15T10:24:40;100659.44;;;16.91;9.58
79692;BME280;69158;55.592;37.610;2023-04-15T10:27:30;100616.47;;;16.68;8.65
79692;BME280;69158;55.592;37.610;2023-04-15T10:30:16;100647.94;;;16.84;8.30
79692;BME280;69158;55.592;37.610;2023-04-15T10:33:04;100643.56;;;17.91;8.11
79692;BME280;69158;55.592;37.610;2023-04-15T10:35:52;100642.28;;;18.73;7.52
79692;BME280;69158;55.592;37.610;2023-04-15T10:38:47;100616.81;;;19.47;7.41
79692;BME280;69158;55.592;37.610;2023-04-15T10:41:36;100642.69;;;19.97;7.21
79692;BME280;69158;55.592;37.610;2023-04-15T10:44:22;100650.47;;;20.48;7.66
79692;BME280;69158;55.592;37.610;2023-04-15T10:47:14;100625.69;;;20.16;7.63
79692;BME280;69158;55.592;37.610;2023-04-15T10:50:01;100627.00;;;19.57;7.27
79692;BME280;69158;55.592;37.610;2023-04-15T10:52:50;100642.38;;;20.54;7.20
79692;BME280;69158;55.592;37.610;2023-04-15T10:55:37;100633.22;;;19.76;8.13
79692;BME280;69158;55.592;37.610;2023-04-15T10:58:24;100639.50;;;19.57;6.78
79692;BME280;69158;55.592;37.610;2023-04-15T11:01:12;100606.84;;;19.30;6.97
79692;BME280;69158;55.592;37.610;2023-04-15T11:03:58;100614.63;;;18.93;7.17
79692;BME280;69158;55.592;37.610;2023-04-15T11:06:44;100622.47;;;19.58;7.30
79692;BME280;69158;55.592;37.610;2023-04-15T11:09:31;100605.84;;;20.55;6.88
79692;BME280;69158;55.592;37.610;2023-04-15T11:12:22;100601.25;;;20.98;6.38
79692;BME280;69158;55.592;37.610;2023-04-15T11:15:35;100618.44;;;22.03;5.78
79692;BME280;69158;55.592;37.610;2023-04-15T11:18:31;100632.56;;;21.39;6.75
79692;BME280;69158;55.592;37.610;2023-04-15T11:21:17;100618.50;;;20.41;5.86
79692;BME280;69158;55.592;37.610;2023-04-15T11:24:04;100627.25;;;21.03;6.50
79692;BME280;69158;55.592;37.610;2023-04-15T11:26:56;100629.78;;;21.87;5.83
79692;BME280;69158;55.592;37.610;2023-04-15T11:29:43;100623.00;;;20.65;5.78
79692;BME280;69158;55.592;37.610;2023-04-15T11:32:29;100621.28;;;20.28;6.51
79692;BME280;69158;55.592;37.610;2023-04-15T11:35:16;100599.31;;;21.05;6.53
79692;BME280;69158;55.592;37.610;2023-04-15T11:38:04;100605.31;;;22.02;6.24
79692;BME280;69158;55.592;37.610;2023-04-15T11:40:51;100587.94;;;21.69;6.26
79692;BME280;69158;55.592;37.610;2023-04-15T11:43:37;100615.56;;;20.86;6.53
79692;BME280;69158;55.592;37.610;2023-04-15T11:46:32;100602.91;;;19.39;7.13
79692;BME280;69158;55.592;37.610;2023-04-15T11:49:26;100589.38;;;18.45;7.76
79692;BME280;69158;55.592;37.610;2023-04-15T11:52:13;100603.50;;;18.32;7.94
79692;BME280;69158;55.592;37.610;2023-04-15T11:55:06;100592.22;;;18.56;8.76
79692;BME280;69158;55.592;37.610;2023-04-15T12:00:59;100595.94;;;19.76;7.31
79692;BME280;69158;55.592;37.610;2023-04-15T12:03:46;100591.44;;;19.70;7.37
79692;BME280;69158;55.592;37.610;2023-04-15T12:06:32;100594.97;;;20.13;7.10
79692;BME280;69158;55.592;37.610;2023-04-15T12:09:23;100598.50;;;19.58;7.90
79692;BME280;69158;55.592;37.610;2023-04-15T12:12:09;100590.19;;;18.45;7.79
79692;BME280;69158;55.592;37.610;2023-04-15T12:14:56;100551.63;;;18.10;8.08
79692;BME280;69158;55.592;37.610;2023-04-15T12:17:44;100563.50;;;17.68;8.26
79692;BME280;69158;55.592;37.610;2023-04-15T12:20:29;100568.59;;;18.02;8.37
79692;BME280;69158;55.592;37.610;2023-04-15T12:23:18;100582.09;;;17.68;9.05
79692;BME280;69158;55.592;37.610;2023-04-15T12:26:05;100579.25;;;16.96;9.50
79692;BME280;69158;55.592;37.610;2023-04-15T12:29:01;100597.78;;;16.83;8.77
79692;BME280;69158;55.592;37.610;2023-04-15T12:31:53;100568.41;;;16.43;9.10
79692;BME280;69158;55.592;37.610;2023-04-15T12:34:51;100583.84;;;16.67;9.70
79692;BME280;69158;55.592;37.610;2023-04-15T12:37:38;100593.13;;;16.57;9.45
79692;BME280;69158;55.592;37.610;2023-04-15T12:40:24;100558.34;;;16.32;9.55
79692;BME280;69158;55.592;37.610;2023-04-15T12:43:10;100604.44;;;16.10;9.41
79692;BME280;69158;55.592;37.610;2023-04-15T12:45:56;100586.09;;;15.59;9.41
79692;BME280;69158;55.592;37.610;2023-04-15T12:48:43;100580.38;;;15.20;9.72
79692;BME280;69158;55.592;37.610;2023-04-15T12:51:29;100567.16;;;15.20;10.23
79692;BME280;69158;55.592;37.610;2023-04-15T12:54:17;100590.13;;;15.55;9.87
79692;BME280;69158;55.592;37.610;2023-04-15T12:57:03;100573.94;;;15.65;9.95
79692;BME280;69158;55.592;37.610;2023-04-15T12:59:49;100587.84;;;15.31;10.99
79692;BME280;69158;55.592;37.610;2023-04-15T13:02:35;100586.22;;;15.51;10.39
79692;BME280;69158;55.592;37.610;2023-04-15T13:05:22;100580.34;;;15.13;11.86
79692;BME280;69158;55.592;37.610;2023-04-15T13:08:09;100574.56;;;14.88;10.61
79692;BME280;69158;55.592;37.610;2023-04-15T13:10:56;100569.03;;;14.54;11.14
79692;BME280;69158;55.592;37.610;2023-04-15T13:13:42;100595.53;;;14.31;11.11
79692;BME280;69158;55.592;37.610;2023-04-15T13:16:33;100592.28;;;14.06;10.88
79692;BME280;69158;55.592;37.610;2023-04-15T13:19:20;100598.97;;;14.32;10.79
79692;BME280;69158;55.592;37.610;2023-04-15T13:22:09;100589.88;;;14.34;10.70
79692;BME280;69158;55.592;37.610;2023-04-15T13:24:56;100564.34;;;13.60;11.72
79692;BME280;69158;55.592;37.610;2023-04-15T13:27:42;100596.50;;;13.78;11.06
79692;BME280;69158;55.592;37.610;2023-04-15T13:30:28;100584.84;;;13.73;11.15
79692;BME280;69158;55.592;37.610;2023-04-15T13:33:16;100594.97;;;13.84;10.77
79692;BME280;69158;55.592;37.610;2023-04-15T13:36:02;100600.66;;;13.95;10.78
79692;BME280;69158;55.592;37.610;2023-04-15T13:38:49;100602.91;;;13.84;11.30
79692;BME280;69158;55.592;37.610;2023-04-15T13:41:35;100591.88;;;13.80;11.19
79692;BME280;69158;55.592;37.610;2023-04-15T13:44:22;100577.72;;;13.58;11.95
79692;BME280;69158;55.592;37.610;2023-04-15T13:47:08;100596.72;;;13.54;11.86
79692;BME280;69158;55.592;37.610;2023-04-15T13:49:54;100591.59;;;13.30;12.00
79692;BME280;69158;55.592;37.610;2023-04-15T13:52:41;100592.78;;;13.27;12.03
79692;BME280;69158;55.592;37.610;2023-04-15T13:55:29;100581.22;;;13.28;11.85
79692;BME280;69158;55.592;37.610;2023-04-15T13:58:15;100576.38;;;13.09;12.17
79692;BME280;69158;55.592;37.610;2023-04-15T14:01:02;100598.78;;;13.13;11.97
79692;BME280;69158;55.592;37.610;2023-04-15T14:03:48;100600.25;;;13.07;11.94
79692;BME280;69158;55.592;37.610;2023-04-15T14:06:34;100596.78;;;12.76;12.19
79692;BME280;69158;55.592;37.610;2023-04-15T14:09:20;100589.72;;;12.30;12.21
79692;BME280;69158;55.592;37.610;2023-04-15T14:12:08;100600.06;;;12.23;12.10
79692;BME280;69158;55.592;37.610;2023-04-15T14:14:55;100606.38;;;11.98;13.18
79692;BME280;69158;55.592;37.610;2023-04-15T14:17:42;100611.91;;;11.62;12.81
79692;BME280;69158;55.592;37.610;2023-04-15T14:20:28;100611.34;;;11.18;13.36
79692;BME280;69158;55.592;37.610;2023-04-15T14:23:14;100591.94;;;10.95;12.91
79692;BME280;69158;55.592;37.610;2023-04-15T14:26:01;100606.03;;;10.94;13.76
79692;BME280;69158;55.592;37.610;2023-04-15T14:28:47;100615.00;;;10.83;14.56
79692;BME280;69158;55.592;37.610;2023-04-15T14:31:33;100577.94;;;10.44;15.22
79692;BME280;69158;55.592;37.610;2023-04-15T14:34:20;100599.97;;;10.52;14.50
79692;BME280;69158;55.592;37.610;2023-04-15T14:37:09;100597.75;;;10.39;13.95
79692;BME280;69158;55.592;37.610;2023-04-15T14:39:55;100579.34;;;10.05;14.13
79692;BME280;69158;55.592;37.610;2023-04-15T14:42:41;100612.59;;;10.22;14.76